Albert, NM

10:54 AM MDT on October 24, 2014 (GMT -0600)
Tucumcari Municipal | Change Station
CLOSE
Current Station
Airport
Location: Tucumcari,
Elevation: 4065 ft
Nearby Weather Stations

Elev 4065 ft 35.18 °N, 103.60 °W | Updated 1 hour ago

Clear
Clear
65 °F
Feels Like 65 °F
N
6
Wind Variable Wind from West

Today
High -- | Low -- °F
--% Chance of Precip.
Yesterday
High -- | Low -- °F
Precip. -- in
7:09 AM 6:07 PM
New Moon, 1% visible
Pressure 30.07 in
Visibility 10.0 miles
Clouds Clear
Dew Point 40 °F
Humidity 40%
Rainfall 0.00 in
Snow Depth Not available.
UV 3 out of 12
Pollen 3.50 out of 12
Air Quality Not available.
Flu Activity Sporadic
METAR KTCC 241553Z AUTO 27005KT 10SM CLR 18/04 A3020 RMK AO2 SLP183 T01830044

More Conditions Fewer Conditions

Pressure 30.07 in
Visibility 10.0 miles
Clouds Clear
Dew Point 40 °F
Humidity 40%
Rainfall 0.00 in
Snow Depth Not available.
UV 3 out of 12
Pollen 3.50 out of 12
Air Quality Not available.
Flu Activity Sporadic
METAR KTCC 241553Z AUTO 27005KT 10SM CLR 18/04 A3020 RMK AO2 SLP183 T01830044

More Conditions Fewer Conditions

10-Day Weather Forecast

Almanac

Astronomy

Oct. 24, 2014 Rise Set
Actual Time 7:09 AM MDT 6:07 PM MDT
Civil Twilight 6:42 AM MDT 6:33 PM MDT
Nautical Twilight 6:13 AM MDT 7:03 PM MDT
Astronomical Twilight 5:43 AM MDT 7:33 PM MDT
Moon 7:49 AM MDT 6:50 PM MDT
Length of Visible Light 11h 50m
Length of Day
10h 58m
Tomorrow will be 2m 5s shorter.
New Moon, 1% of the Moon is Illuminated
Today
New Moon
Oct 30
First Quarter
Nov 6
Full
Nov 14
Last Quarter
Nov 22
New

Today's Extremes

State Highs State Lows

Community

WunderPhotos

Upload Photos

1,764,609 photos uploaded!

WunderBlogs® & News

By Dr. Jeff Masters
Director of Meteorology, Weather Underground
By Kari Strenfel
Meteorologist, Weather Underground
By Christopher C. Burt
Weather Historian, Weather Underground
October 24, 2014
October 24, 2014
October 24, 2014

Nearby

Snow Depth

Station Depth Elevation
Wesner Springs 3 in 11120 ft
Gallegos Peak 0 in 9800 ft
Red River Pass #2 0 in 9850 ft
Elk Cabin 1 in 8210 ft
Santa Fe 1 in 11445 ft

Earthquake Activity

City Distance Mag. Time & Date
No recent earthquake activity has been reported nearby.
Minimum magnitude displayed is 2.5.

Coastal Water Temperatures

Place Temperature
No Stations Reporting

Nearby Weather Stations